sensor_id;sensor_type;location;lat;lon;timestamp;pressure;altitude;pressure_sealevel;temperature;humidity
84926;BME280;75187;48.190;16.294;2024-02-26T00:00:05;97888.78;;;8.54;65.97
84926;BME280;75187;48.190;16.294;2024-02-26T00:02:37;97802.47;;;8.23;65.02
84926;BME280;75187;48.190;16.294;2024-02-26T00:05:07;97966.53;;;9.39;65.11
84926;BME280;75187;48.190;16.294;2024-02-26T00:07:32;97944.25;;;9.07;65.78
84926;BME280;75187;48.190;16.294;2024-02-26T00:09:58;97971.34;;;9.17;65.89
84926;BME280;75187;48.190;16.294;2024-02-26T00:12:23;97857.28;;;8.17;66.70
84926;BME280;75187;48.190;16.294;2024-02-26T00:14:49;97885.59;;;8.32;66.95
84926;BME280;75187;48.190;16.294;2024-02-26T00:17:15;97968.59;;;8.99;67.06
84926;BME280;75187;48.190;16.294;2024-02-26T00:19:40;97986.81;;;9.20;66.04
84926;BME280;75187;48.190;16.294;2024-02-26T00:22:06;97975.66;;;9.08;65.83
84926;BME280;75187;48.190;16.294;2024-02-26T00:24:31;97961.94;;;9.14;66.31
84926;BME280;75187;48.190;16.294;2024-02-26T00:26:56;97976.81;;;9.33;66.27
84926;BME280;75187;48.190;16.294;2024-02-26T00:29:22;97992.13;;;9.47;65.62
84926;BME280;75187;48.190;16.294;2024-02-26T00:31:47;97877.50;;;8.81;65.05
84926;BME280;75187;48.190;16.294;2024-02-26T00:34:13;97880.25;;;8.89;65.02
84926;BME280;75187;48.190;16.294;2024-02-26T00:36:38;97890.03;;;8.96;64.89
84926;BME280;75187;48.190;16.294;2024-02-26T00:39:03;97870.72;;;8.78;63.92
84926;BME280;75187;48.190;16.294;2024-02-26T00:41:29;97786.81;;;8.40;64.14
84926;BME280;75187;48.190;16.294;2024-02-26T00:43:54;97950.59;;;9.41;63.99
84926;BME280;75187;48.190;16.294;2024-02-26T00:46:20;97949.53;;;9.34;63.81
84926;BME280;75187;48.190;16.294;2024-02-26T00:48:45;97892.03;;;9.12;63.66
84926;BME280;75187;48.190;16.294;2024-02-26T00:51:11;97892.28;;;9.18;63.63
84926;BME280;75187;48.190;16.294;2024-02-26T00:53:36;97906.09;;;9.30;63.31
84926;BME280;75187;48.190;16.294;2024-02-26T00:56:01;97956.84;;;9.40;63.95
84926;BME280;75187;48.190;16.294;2024-02-26T00:58:27;97884.38;;;9.01;63.98
84926;BME280;75187;48.190;16.294;2024-02-26T01:00:52;97845.38;;;8.87;63.29
84926;BME280;75187;48.190;16.294;2024-02-26T01:03:18;97949.66;;;9.42;63.88
84926;BME280;75187;48.190;16.294;2024-02-26T01:05:44;97763.44;;;8.37;63.11
84926;BME280;75187;48.190;16.294;2024-02-26T01:08:09;97915.41;;;9.51;63.36
84926;BME280;75187;48.190;16.294;2024-02-26T01:10:34;97857.84;;;9.21;62.65
84926;BME280;75187;48.190;16.294;2024-02-26T01:13:01;97847.69;;;8.99;63.12
84926;BME280;75187;48.190;16.294;2024-02-26T01:15:26;97909.06;;;9.44;63.44
84926;BME280;75187;48.190;16.294;2024-02-26T01:17:52;97936.84;;;9.56;63.94
84926;BME280;75187;48.190;16.294;2024-02-26T01:20:17;97931.88;;;9.53;63.85
84926;BME280;75187;48.190;16.294;2024-02-26T01:22:43;97943.31;;;9.62;64.15
84926;BME280;75187;48.190;16.294;2024-02-26T01:25:09;97918.91;;;9.42;63.83
84926;BME280;75187;48.190;16.294;2024-02-26T01:27:35;97921.88;;;9.57;63.82
84926;BME280;75187;48.190;16.294;2024-02-26T01:30:03;97824.72;;;9.01;63.12
84926;BME280;75187;48.190;16.294;2024-02-26T01:32:29;97817.81;;;9.00;64.07
84926;BME280;75187;48.190;16.294;2024-02-26T01:34:54;97897.28;;;9.48;64.20
84926;BME280;75187;48.190;16.294;2024-02-26T01:37:20;97918.03;;;9.51;63.53
84926;BME280;75187;48.190;16.294;2024-02-26T01:39:45;97820.81;;;9.05;63.13
84926;BME280;75187;48.190;16.294;2024-02-26T01:42:10;97794.16;;;8.73;63.48
84926;BME280;75187;48.190;16.294;2024-02-26T01:44:36;97821.53;;;8.71;64.26
84926;BME280;75187;48.190;16.294;2024-02-26T01:47:04;97885.63;;;8.87;65.18
84926;BME280;75187;48.190;16.294;2024-02-26T01:49:29;97794.44;;;8.34;66.22
84926;BME280;75187;48.190;16.294;2024-02-26T01:51:55;97885.13;;;9.11;65.26
84926;BME280;75187;48.190;16.294;2024-02-26T01:54:22;97874.44;;;9.22;65.47
84926;BME280;75187;48.190;16.294;2024-02-26T01:56:48;97801.16;;;8.82;64.15
84926;BME280;75187;48.190;16.294;2024-02-26T01:59:14;97763.38;;;8.56;63.59
84926;BME280;75187;48.190;16.294;2024-02-26T02:01:44;97771.91;;;8.13;64.76
84926;BME280;75187;48.190;16.294;2024-02-26T02:04:11;97877.69;;;8.60;64.69
84926;BME280;75187;48.190;16.294;2024-02-26T02:06:37;97876.19;;;8.48;65.23
84926;BME280;75187;48.190;16.294;2024-02-26T02:09:03;97798.28;;;8.30;65.17
84926;BME280;75187;48.190;16.294;2024-02-26T02:11:33;97786.72;;;8.14;64.67
84926;BME280;75187;48.190;16.294;2024-02-26T02:13:58;97774.00;;;8.00;65.83
84926;BME280;75187;48.190;16.294;2024-02-26T02:16:24;97816.63;;;8.39;65.95
84926;BME280;75187;48.190;16.294;2024-02-26T02:18:49;97665.75;;;7.33;64.33
84926;BME280;75187;48.190;16.294;2024-02-26T02:21:15;97786.41;;;8.17;65.55
84926;BME280;75187;48.190;16.294;2024-02-26T02:23:40;97780.81;;;7.74;67.28
84926;BME280;75187;48.190;16.294;2024-02-26T02:26:07;97811.16;;;7.67;68.24
84926;BME280;75187;48.190;16.294;2024-02-26T02:28:33;97880.09;;;7.88;69.38
84926;BME280;75187;48.190;16.294;2024-02-26T02:30:58;97770.25;;;7.07;69.88
84926;BME280;75187;48.190;16.294;2024-02-26T02:33:25;97784.91;;;7.10;71.14
84926;BME280;75187;48.190;16.294;2024-02-26T02:35:50;97781.97;;;7.03;71.77
84926;BME280;75187;48.190;16.294;2024-02-26T02:38:17;97912.22;;;7.71;72.04
84926;BME280;75187;48.190;16.294;2024-02-26T02:40:43;97905.84;;;7.64;72.28
84926;BME280;75187;48.190;16.294;2024-02-26T02:43:08;97847.97;;;6.88;74.66
84926;BME280;75187;48.190;16.294;2024-02-26T02:45:33;97883.75;;;7.08;74.81
84926;BME280;75187;48.190;16.294;2024-02-26T02:47:58;97873.16;;;7.19;74.98
84926;BME280;75187;48.190;16.294;2024-02-26T02:50:24;97859.72;;;6.93;74.19
84926;BME280;75187;48.190;16.294;2024-02-26T02:52:49;97888.22;;;6.87;75.67
84926;BME280;75187;48.190;16.294;2024-02-26T02:55:16;97829.66;;;6.58;76.13
84926;BME280;75187;48.190;16.294;2024-02-26T02:57:41;97770.91;;;6.21;76.39
84926;BME280;75187;48.190;16.294;2024-02-26T03:00:08;97873.13;;;6.70;77.44
84926;BME280;75187;48.190;16.294;2024-02-26T03:02:34;97890.25;;;6.83;77.17
84926;BME280;75187;48.190;16.294;2024-02-26T03:05:02;97866.63;;;7.04;75.13
84926;BME280;75187;48.190;16.294;2024-02-26T03:07:27;97877.91;;;7.34;73.97
84926;BME280;75187;48.190;16.294;2024-02-26T03:09:53;97759.38;;;6.63;74.28
84926;BME280;75187;48.190;16.294;2024-02-26T03:12:18;97853.03;;;7.19;74.42
84926;BME280;75187;48.190;16.294;2024-02-26T03:14:44;97852.44;;;7.06;74.59
84926;BME280;75187;48.190;16.294;2024-02-26T03:17:09;97745.25;;;6.35;75.41
84926;BME280;75187;48.190;16.294;2024-02-26T03:19:34;97860.44;;;7.05;75.38
84926;BME280;75187;48.190;16.294;2024-02-26T03:22:00;97845.13;;;7.00;74.50
84926;BME280;75187;48.190;16.294;2024-02-26T03:24:25;97816.13;;;6.83;74.58
84926;BME280;75187;48.190;16.294;2024-02-26T03:26:50;97869.47;;;7.31;73.75
84926;BME280;75187;48.190;16.294;2024-02-26T03:29:17;97761.88;;;6.64;73.54
84926;BME280;75187;48.190;16.294;2024-02-26T03:31:42;97749.53;;;6.46;73.41
84926;BME280;75187;48.190;16.294;2024-02-26T03:34:07;97736.47;;;6.16;74.55
84926;BME280;75187;48.190;16.294;2024-02-26T03:36:33;97862.38;;;6.73;75.41
84926;BME280;75187;48.190;16.294;2024-02-26T03:38:58;97853.84;;;6.50;75.70
84926;BME280;75187;48.190;16.294;2024-02-26T03:41:24;97839.41;;;6.26;76.75
84926;BME280;75187;48.190;16.294;2024-02-26T03:43:49;97838.13;;;6.20;76.74
84926;BME280;75187;48.190;16.294;2024-02-26T03:46:14;97746.25;;;5.73;76.64
84926;BME280;75187;48.190;16.294;2024-02-26T03:48:42;97824.94;;;6.31;76.28
84926;BME280;75187;48.190;16.294;2024-02-26T03:51:09;97754.53;;;5.78;76.47
84926;BME280;75187;48.190;16.294;2024-02-26T03:53:35;97650.09;;;5.15;76.13
84926;BME280;75187;48.190;16.294;2024-02-26T03:56:05;97702.25;;;5.58;76.76
84926;BME280;75187;48.190;16.294;2024-02-26T03:58:30;97764.94;;;5.89;76.64
84926;BME280;75187;48.190;16.294;2024-02-26T04:00:56;97862.78;;;6.48;76.60
84926;BME280;75187;48.190;16.294;2024-02-26T04:03:21;97731.19;;;5.66;76.89
84926;BME280;75187;48.190;16.294;2024-02-26T04:05:47;97861.28;;;6.45;76.57
84926;BME280;75187;48.190;16.294;2024-02-26T04:08:12;97809.13;;;6.33;76.24
84926;BME280;75187;48.190;16.294;2024-02-26T04:10:37;97851.97;;;6.62;76.10
84926;BME280;75187;48.190;16.294;2024-02-26T04:13:04;97760.78;;;6.07;75.71
84926;BME280;75187;48.190;16.294;2024-02-26T04:15:30;97826.41;;;6.45;75.70
84926;BME280;75187;48.190;16.294;2024-02-26T04:17:56;97829.69;;;6.37;76.32
84926;BME280;75187;48.190;16.294;2024-02-26T04:20:21;97850.84;;;6.55;76.68
84926;BME280;75187;48.190;16.294;2024-02-26T04:22:47;97692.53;;;5.69;75.60
84926;BME280;75187;48.190;16.294;2024-02-26T04:25:12;97719.00;;;5.76;75.91
84926;BME280;75187;48.190;16.294;2024-02-26T04:27:38;97836.94;;;6.34;76.04
84926;BME280;75187;48.190;16.294;2024-02-26T04:30:04;97796.13;;;6.22;76.65
84926;BME280;75187;48.190;16.294;2024-02-26T04:32:30;97733.84;;;5.86;76.05
84926;BME280;75187;48.190;16.294;2024-02-26T04:34:55;97864.22;;;6.52;75.92
84926;BME280;75187;48.190;16.294;2024-02-26T04:37:20;97845.13;;;6.70;75.43
84926;BME280;75187;48.190;16.294;2024-02-26T04:39:46;97855.41;;;6.83;75.35
84926;BME280;75187;48.190;16.294;2024-02-26T04:42:11;97734.63;;;6.37;74.31
84926;BME280;75187;48.190;16.294;2024-02-26T04:44:37;97851.03;;;6.93;74.43
84926;BME280;75187;48.190;16.294;2024-02-26T04:47:02;97801.56;;;6.69;74.18
84926;BME280;75187;48.190;16.294;2024-02-26T04:49:28;97821.56;;;7.00;73.88
84926;BME280;75187;48.190;16.294;2024-02-26T04:51:53;97652.97;;;5.53;74.96
84926;BME280;75187;48.190;16.294;2024-02-26T04:54:19;97820.75;;;6.40;76.19
84926;BME280;75187;48.190;16.294;2024-02-26T04:56:44;97736.94;;;5.80;76.94
84926;BME280;75187;48.190;16.294;2024-02-26T04:59:10;97812.38;;;6.25;77.04
84926;BME280;75187;48.190;16.294;2024-02-26T05:01:35;97828.66;;;6.29;77.08
84926;BME280;75187;48.190;16.294;2024-02-26T05:04:02;97745.50;;;5.82;77.05
84926;BME280;75187;48.190;16.294;2024-02-26T05:06:28;97818.06;;;6.30;77.34
84926;BME280;75187;48.190;16.294;2024-02-26T05:08:53;97858.78;;;6.74;76.13
84926;BME280;75187;48.190;16.294;2024-02-26T05:11:19;97824.44;;;6.67;74.93
84926;BME280;75187;48.190;16.294;2024-02-26T05:13:44;97825.94;;;7.00;75.13
84926;BME280;75187;48.190;16.294;2024-02-26T05:16:10;97748.69;;;6.75;74.13
84926;BME280;75187;48.190;16.294;2024-02-26T05:18:36;97844.69;;;7.54;73.38
84926;BME280;75187;48.190;16.294;2024-02-26T05:21:01;97739.38;;;7.11;72.36
84926;BME280;75187;48.190;16.294;2024-02-26T05:23:28;97833.28;;;7.74;72.17
84926;BME280;75187;48.190;16.294;2024-02-26T05:25:54;97740.63;;;7.26;72.06
84926;BME280;75187;48.190;16.294;2024-02-26T05:28:19;97829.94;;;7.91;71.24
84926;BME280;75187;48.190;16.294;2024-02-26T05:30:45;97839.03;;;8.15;70.73
84926;BME280;75187;48.190;16.294;2024-02-26T05:33:11;97838.78;;;8.27;70.83
84926;BME280;75187;48.190;16.294;2024-02-26T05:35:37;97827.56;;;8.44;69.54
84926;BME280;75187;48.190;16.294;2024-02-26T05:38:02;97713.66;;;7.90;69.31
84926;BME280;75187;48.190;16.294;2024-02-26T05:40:27;97734.22;;;8.14;68.75
84926;BME280;75187;48.190;16.294;2024-02-26T05:42:53;97855.75;;;8.88;68.25
84926;BME280;75187;48.190;16.294;2024-02-26T05:45:18;97835.50;;;8.71;68.29
84926;BME280;75187;48.190;16.294;2024-02-26T05:47:43;97712.69;;;8.01;68.21
84926;BME280;75187;48.190;16.294;2024-02-26T05:50:09;97727.44;;;8.11;67.68
84926;BME280;75187;48.190;16.294;2024-02-26T05:52:36;97758.91;;;8.30;68.14
84926;BME280;75187;48.190;16.294;2024-02-26T05:55:02;97823.38;;;8.51;68.33
84926;BME280;75187;48.190;16.294;2024-02-26T05:57:28;97665.72;;;7.52;67.78
84926;BME280;75187;48.190;16.294;2024-02-26T05:59:53;97754.69;;;8.01;68.24
84926;BME280;75187;48.190;16.294;2024-02-26T06:02:18;97879.31;;;8.71;67.96
84926;BME280;75187;48.190;16.294;2024-02-26T06:04:44;97846.75;;;8.54;67.83
84926;BME280;75187;48.190;16.294;2024-02-26T06:07:09;97875.66;;;8.54;67.87
84926;BME280;75187;48.190;16.294;2024-02-26T06:09:35;97791.78;;;8.15;67.87
84926;BME280;75187;48.190;16.294;2024-02-26T06:12:00;97890.72;;;8.33;68.78
84926;BME280;75187;48.190;16.294;2024-02-26T06:14:25;97882.25;;;8.58;68.54
84926;BME280;75187;48.190;16.294;2024-02-26T06:16:51;97852.97;;;8.44;68.34
84926;BME280;75187;48.190;16.294;2024-02-26T06:19:16;97787.13;;;8.00;68.52
84926;BME280;75187;48.190;16.294;2024-02-26T06:21:41;97809.06;;;7.99;68.67
84926;BME280;75187;48.190;16.294;2024-02-26T06:24:06;97880.38;;;8.41;69.09
84926;BME280;75187;48.190;16.294;2024-02-26T06:26:32;97780.25;;;7.80;68.50
84926;BME280;75187;48.190;16.294;2024-02-26T06:28:58;97865.56;;;7.65;70.53
84926;BME280;75187;48.190;16.294;2024-02-26T06:31:24;97859.31;;;6.98;73.02
84926;BME280;75187;48.190;16.294;2024-02-26T06:33:49;97802.69;;;6.67;73.50
84926;BME280;75187;48.190;16.294;2024-02-26T06:36:16;97882.28;;;6.85;74.98
84926;BME280;75187;48.190;16.294;2024-02-26T06:38:41;97889.72;;;6.80;75.65
84926;BME280;75187;48.190;16.294;2024-02-26T06:41:06;97785.72;;;6.11;75.85
84926;BME280;75187;48.190;16.294;2024-02-26T06:43:32;97900.56;;;6.75;75.75
84926;BME280;75187;48.190;16.294;2024-02-26T06:45:57;97910.09;;;6.76;76.42
84926;BME280;75187;48.190;16.294;2024-02-26T06:48:24;97922.22;;;7.07;75.00
84926;BME280;75187;48.190;16.294;2024-02-26T06:50:49;97904.78;;;7.27;74.18
84926;BME280;75187;48.190;16.294;2024-02-26T06:53:15;97712.94;;;6.16;72.76
84926;BME280;75187;48.190;16.294;2024-02-26T06:55:41;97899.97;;;7.32;73.36
84926;BME280;75187;48.190;16.294;2024-02-26T06:58:07;97903.59;;;7.40;72.95
84926;BME280;75187;48.190;16.294;2024-02-26T07:00:32;97892.53;;;7.37;73.31
84926;BME280;75187;48.190;16.294;2024-02-26T07:02:57;97911.69;;;7.67;73.26
84926;BME280;75187;48.190;16.294;2024-02-26T07:05:23;97885.97;;;7.52;72.94
84926;BME280;75187;48.190;16.294;2024-02-26T07:07:48;97912.47;;;7.68;72.68
84926;BME280;75187;48.190;16.294;2024-02-26T07:10:14;97808.38;;;7.30;73.03
84926;BME280;75187;48.190;16.294;2024-02-26T07:12:39;97909.06;;;8.05;71.77
84926;BME280;75187;48.190;16.294;2024-02-26T07:15:05;97816.94;;;7.51;72.08
84926;BME280;75187;48.190;16.294;2024-02-26T07:17:33;97906.72;;;8.12;71.52
84926;BME280;75187;48.190;16.294;2024-02-26T07:20:01;97773.03;;;7.06;72.02
84926;BME280;75187;48.190;16.294;2024-02-26T07:22:26;97827.69;;;7.39;71.52
84926;BME280;75187;48.190;16.294;2024-02-26T07:24:51;97923.03;;;8.15;71.43
84926;BME280;75187;48.190;16.294;2024-02-26T07:27:18;97852.56;;;7.73;71.22
84926;BME280;75187;48.190;16.294;2024-02-26T07:29:45;97882.97;;;8.04;71.46
84926;BME280;75187;48.190;16.294;2024-02-26T07:32:11;97903.44;;;8.38;70.83
84926;BME280;75187;48.190;16.294;2024-02-26T07:34:37;97806.19;;;8.02;70.07
84926;BME280;75187;48.190;16.294;2024-02-26T07:37:04;97724.75;;;7.84;69.58
84926;BME280;75187;48.190;16.294;2024-02-26T07:39:29;97900.22;;;9.09;68.66
84926;BME280;75187;48.190;16.294;2024-02-26T07:41:55;97868.50;;;8.83;68.55
84926;BME280;75187;48.190;16.294;2024-02-26T07:44:20;97775.78;;;8.27;68.63
84926;BME280;75187;48.190;16.294;2024-02-26T07:46:45;97789.03;;;8.26;68.92
84926;BME280;75187;48.190;16.294;2024-02-26T07:49:11;97800.09;;;8.29;68.30
84926;BME280;75187;48.190;16.294;2024-02-26T07:51:36;97796.22;;;8.33;69.04
84926;BME280;75187;48.190;16.294;2024-02-26T07:54:02;97884.22;;;9.29;68.25
84926;BME280;75187;48.190;16.294;2024-02-26T07:56:27;97913.63;;;9.15;68.47
84926;BME280;75187;48.190;16.294;2024-02-26T07:58:52;97920.94;;;9.21;68.03
84926;BME280;75187;48.190;16.294;2024-02-26T08:01:18;97751.19;;;8.19;68.92
84926;BME280;75187;48.190;16.294;2024-02-26T08:03:43;97826.25;;;8.67;68.53
84926;BME280;75187;48.190;16.294;2024-02-26T08:06:08;97849.19;;;8.75;67.97
84926;BME280;75187;48.190;16.294;2024-02-26T08:08:34;97785.19;;;8.21;69.53
84926;BME280;75187;48.190;16.294;2024-02-26T08:11:00;97926.53;;;9.36;68.89
84926;BME280;75187;48.190;16.294;2024-02-26T08:13:25;97822.47;;;9.06;68.61
84926;BME280;75187;48.190;16.294;2024-02-26T08:15:51;97815.91;;;8.93;68.41
84926;BME280;75187;48.190;16.294;2024-02-26T08:18:17;97877.00;;;9.04;69.51
84926;BME280;75187;48.190;16.294;2024-02-26T08:20:42;97810.28;;;8.78;69.53
84926;BME280;75187;48.190;16.294;2024-02-26T08:23:08;97926.00;;;9.59;69.02
84926;BME280;75187;48.190;16.294;2024-02-26T08:25:33;97915.97;;;9.72;68.63
84926;BME280;75187;48.190;16.294;2024-02-26T08:27:58;97913.13;;;9.83;68.00
84926;BME280;75187;48.190;16.294;2024-02-26T08:30:24;97839.13;;;9.51;67.55
84926;BME280;75187;48.190;16.294;2024-02-26T08:32:49;97901.00;;;10.17;68.12
84926;BME280;75187;48.190;16.294;2024-02-26T08:35:15;97931.25;;;10.13;67.63
84926;BME280;75187;48.190;16.294;2024-02-26T08:37:44;97851.53;;;9.59;68.07
84926;BME280;75187;48.190;16.294;2024-02-26T08:40:10;97934.13;;;9.93;67.62
84926;BME280;75187;48.190;16.294;2024-02-26T08:42:36;97740.50;;;8.93;67.21
84926;BME280;75187;48.190;16.294;2024-02-26T08:45:02;97910.84;;;9.98;67.83
84926;BME280;75187;48.190;16.294;2024-02-26T08:47:28;97909.13;;;10.06;68.33
84926;BME280;75187;48.190;16.294;2024-02-26T08:49:54;97943.34;;;10.41;67.24
84926;BME280;75187;48.190;16.294;2024-02-26T08:52:19;97929.13;;;10.69;65.66
84926;BME280;75187;48.190;16.294;2024-02-26T08:54:45;97916.91;;;10.68;67.27
84926;BME280;75187;48.190;16.294;2024-02-26T08:57:10;97894.56;;;10.80;65.09
84926;BME280;75187;48.190;16.294;2024-02-26T08:59:35;97933.41;;;10.70;66.29
84926;BME280;75187;48.190;16.294;2024-02-26T09:02:00;97838.94;;;10.40;65.93
84926;BME280;75187;48.190;16.294;2024-02-26T09:04:26;97885.03;;;10.79;64.91
84926;BME280;75187;48.190;16.294;2024-02-26T09:06:52;97916.50;;;11.31;64.06
84926;BME280;75187;48.190;16.294;2024-02-26T09:09:17;97894.41;;;11.74;63.19
84926;BME280;75187;48.190;16.294;2024-02-26T09:11:43;97893.88;;;11.62;61.74
84926;BME280;75187;48.190;16.294;2024-02-26T09:14:08;97811.19;;;11.12;62.91
84926;BME280;75187;48.190;16.294;2024-02-26T09:16:34;97847.25;;;11.37;62.04
84926;BME280;75187;48.190;16.294;2024-02-26T09:18:59;97920.53;;;11.77;62.56
84926;BME280;75187;48.190;16.294;2024-02-26T09:21:24;97879.84;;;11.62;61.13
84926;BME280;75187;48.190;16.294;2024-02-26T09:23:50;97926.56;;;12.19;61.28
84926;BME280;75187;48.190;16.294;2024-02-26T09:26:16;97837.03;;;12.08;60.42
84926;BME280;75187;48.190;16.294;2024-02-26T09:28:42;97716.19;;;11.86;58.18
84926;BME280;75187;48.190;16.294;2024-02-26T09:31:07;97903.41;;;13.24;56.60
84926;BME280;75187;48.190;16.294;2024-02-26T09:33:33;97888.06;;;13.50;56.06
84926;BME280;75187;48.190;16.294;2024-02-26T09:35:58;97888.53;;;13.15;54.01
84926;BME280;75187;48.190;16.294;2024-02-26T09:38:26;97910.41;;;12.93;55.18
84926;BME280;75187;48.190;16.294;2024-02-26T09:40:51;97877.50;;;13.04;54.29
84926;BME280;75187;48.190;16.294;2024-02-26T09:43:17;97896.31;;;13.01;53.87
84926;BME280;75187;48.190;16.294;2024-02-26T09:45:46;97873.69;;;12.74;54.51
84926;BME280;75187;48.190;16.294;2024-02-26T09:48:12;97891.69;;;13.11;54.67
84926;BME280;75187;48.190;16.294;2024-02-26T09:50:41;97922.94;;;13.15;54.10
84926;BME280;75187;48.190;16.294;2024-02-26T09:53:08;97862.38;;;13.20;54.04
84926;BME280;75187;48.190;16.294;2024-02-26T09:55:35;97901.25;;;13.20;52.81
84926;BME280;75187;48.190;16.294;2024-02-26T09:58:01;97810.09;;;12.52;54.34
84926;BME280;75187;48.190;16.294;2024-02-26T10:00:27;97806.94;;;12.56;53.15
84926;BME280;75187;48.190;16.294;2024-02-26T10:02:57;97787.47;;;12.57;53.40
84926;BME280;75187;48.190;16.294;2024-02-26T10:05:26;97808.47;;;12.43;52.37
84926;BME280;75187;48.190;16.294;2024-02-26T10:07:52;97910.06;;;13.12;53.40
84926;BME280;75187;48.190;16.294;2024-02-26T10:10:18;97923.28;;;13.12;52.01
84926;BME280;75187;48.190;16.294;2024-02-26T10:12:43;97889.97;;;13.26;52.20
84926;BME280;75187;48.190;16.294;2024-02-26T10:15:09;97907.38;;;13.67;50.81
84926;BME280;75187;48.190;16.294;2024-02-26T10:17:35;97742.50;;;12.57;51.34
84926;BME280;75187;48.190;16.294;2024-02-26T10:20:18;97852.56;;;13.29;51.99
84926;BME280;75187;48.190;16.294;2024-02-26T10:22:46;97823.59;;;13.35;51.19
84926;BME280;75187;48.190;16.294;2024-02-26T10:25:11;97792.38;;;12.76;51.89
84926;BME280;75187;48.190;16.294;2024-02-26T10:27:37;97910.22;;;13.57;51.17
84926;BME280;75187;48.190;16.294;2024-02-26T10:30:18;97907.94;;;13.54;51.24
84926;BME280;75187;48.190;16.294;2024-02-26T10:32:45;97832.91;;;13.23;51.00
84926;BME280;75187;48.190;16.294;2024-02-26T10:35:12;97881.53;;;13.38;50.42
84926;BME280;75187;48.190;16.294;2024-02-26T10:37:37;97823.38;;;13.14;51.21
84926;BME280;75187;48.190;16.294;2024-02-26T10:40:02;97783.69;;;13.06;51.19
84926;BME280;75187;48.190;16.294;2024-02-26T10:42:28;97910.78;;;13.83;51.50
84926;BME280;75187;48.190;16.294;2024-02-26T10:44:55;97864.19;;;13.66;51.57
84926;BME280;75187;48.190;16.294;2024-02-26T10:47:21;97904.06;;;13.73;51.21
84926;BME280;75187;48.190;16.294;2024-02-26T10:49:46;97827.88;;;13.36;51.41
84926;BME280;75187;48.190;16.294;2024-02-26T10:52:13;97702.06;;;12.33;52.10
84926;BME280;75187;48.190;16.294;2024-02-26T10:54:41;97865.22;;;13.49;51.58
84926;BME280;75187;48.190;16.294;2024-02-26T10:57:09;97899.59;;;13.96;51.34
84926;BME280;75187;48.190;16.294;2024-02-26T10:59:35;97858.13;;;13.80;51.04
84926;BME280;75187;48.190;16.294;2024-02-26T11:02:01;97819.91;;;13.44;51.20
84926;BME280;75187;48.190;16.294;2024-02-26T11:04:27;97886.94;;;13.83;50.64
84926;BME280;75187;48.190;16.294;2024-02-26T11:06:57;97905.88;;;14.33;50.60
84926;BME280;75187;48.190;16.294;2024-02-26T11:09:22;97864.03;;;13.90;50.27
84926;BME280;75187;48.190;16.294;2024-02-26T11:11:49;97888.25;;;14.18;49.70
84926;BME280;75187;48.190;16.294;2024-02-26T11:14:15;97915.88;;;14.15;49.70
84926;BME280;75187;48.190;16.294;2024-02-26T11:16:41;97870.66;;;13.94;49.27
84926;BME280;75187;48.190;16.294;2024-02-26T11:19:08;97918.81;;;13.98;50.32
84926;BME280;75187;48.190;16.294;2024-02-26T11:21:35;97877.13;;;14.22;49.97
84926;BME280;75187;48.190;16.294;2024-02-26T11:24:12;97880.28;;;14.40;46.89
84926;BME280;75187;48.190;16.294;2024-02-26T11:26:51;97769.69;;;13.81;47.09
84926;BME280;75187;48.190;16.294;2024-02-26T11:29:25;97764.63;;;13.94;45.03
84926;BME280;75187;48.190;16.294;2024-02-26T11:31:52;97886.25;;;14.79;45.47
84926;BME280;75187;48.190;16.294;2024-02-26T11:34:18;97778.72;;;14.17;42.98
84926;BME280;75187;48.190;16.294;2024-02-26T11:36:43;97793.13;;;14.37;43.20
84926;BME280;75187;48.190;16.294;2024-02-26T11:39:11;97750.22;;;14.34;42.65
84926;BME280;75187;48.190;16.294;2024-02-26T11:41:38;97786.56;;;14.48;42.01
84926;BME280;75187;48.190;16.294;2024-02-26T11:44:03;97861.72;;;14.77;42.16
84926;BME280;75187;48.190;16.294;2024-02-26T11:46:33;97725.16;;;13.99;42.35
84926;BME280;75187;48.190;16.294;2024-02-26T11:51:56;97857.59;;;14.60;42.51
84926;BME280;75187;48.190;16.294;2024-02-26T11:59:51;97744.97;;;13.66;42.20
84926;BME280;75187;48.190;16.294;2024-02-26T12:02:45;97851.59;;;14.21;43.62
84926;BME280;75187;48.190;16.294;2024-02-26T12:05:20;97846.59;;;14.26;43.34
84926;BME280;75187;48.190;16.294;2024-02-26T12:07:52;97764.03;;;13.84;42.48
84926;BME280;75187;48.190;16.294;2024-02-26T12:10:23;97737.69;;;13.68;42.46
84926;BME280;75187;48.190;16.294;2024-02-26T12:15:23;97852.41;;;14.44;43.50
84926;BME280;75187;48.190;16.294;2024-02-26T12:17:49;97735.41;;;13.80;41.80
84926;BME280;75187;48.190;16.294;2024-02-26T12:20:16;97735.03;;;13.68;42.45
84926;BME280;75187;48.190;16.294;2024-02-26T12:22:45;97856.06;;;14.43;41.98
84926;BME280;75187;48.190;16.294;2024-02-26T12:25:11;97745.22;;;13.79;41.51
84926;BME280;75187;48.190;16.294;2024-02-26T12:27:38;97831.31;;;14.28;42.18
84926;BME280;75187;48.190;16.294;2024-02-26T12:30:04;97765.28;;;13.96;41.71
84926;BME280;75187;48.190;16.294;2024-02-26T12:32:30;97735.19;;;13.89;42.77
84926;BME280;75187;48.190;16.294;2024-02-26T12:34:56;97815.56;;;14.49;42.93
84926;BME280;75187;48.190;16.294;2024-02-26T12:37:22;97709.63;;;13.96;42.57
84926;BME280;75187;48.190;16.294;2024-02-26T12:39:47;97723.66;;;13.82;42.35
84926;BME280;75187;48.190;16.294;2024-02-26T12:42:14;97806.22;;;14.39;43.06
84926;BME280;75187;48.190;16.294;2024-02-26T12:44:39;97755.09;;;13.85;42.70
84926;BME280;75187;48.190;16.294;2024-02-26T12:47:05;97771.44;;;14.11;42.92
84926;BME280;75187;48.190;16.294;2024-02-26T12:49:31;97723.53;;;13.98;42.90
84926;BME280;75187;48.190;16.294;2024-02-26T12:51:56;97764.38;;;14.26;43.18
84926;BME280;75187;48.190;16.294;2024-02-26T12:54:31;97816.78;;;14.61;42.79
84926;BME280;75187;48.190;16.294;2024-02-26T12:56:59;97717.75;;;13.95;43.03
84926;BME280;75187;48.190;16.294;2024-02-26T12:59:25;97790.97;;;14.55;43.65
84926;BME280;75187;48.190;16.294;2024-02-26T13:01:51;97727.75;;;14.07;42.92